createdAt,value
2023-04-01T00:01:16.139Z,36.42
2023-04-01T00:03:47.081Z,36.05
2023-04-01T00:06:17.606Z,35.90
2023-04-01T00:08:46.079Z,34.30
2023-04-01T00:11:14.240Z,33.15
2023-04-01T00:13:42.470Z,36.58
2023-04-01T00:16:20.888Z,32.78
2023-04-01T00:18:51.211Z,41.40
2023-04-01T00:21:22.000Z,36.53
2023-04-01T00:23:52.124Z,33.42
2023-04-01T00:26:22.528Z,33.25
2023-04-01T00:28:51.347Z,31.40
2023-04-01T00:31:19.516Z,34.50
2023-04-01T00:33:47.354Z,32.83
2023-04-01T00:36:18.432Z,33.63
2023-04-01T00:38:50.022Z,40.05
2023-04-01T00:41:19.594Z,30.92
2023-04-01T00:43:50.707Z,28.33
2023-04-01T00:46:18.966Z,29.33
2023-04-01T00:48:54.871Z,29.77
2023-04-01T00:51:31.247Z,33.45
2023-04-01T00:54:02.880Z,32.55
2023-04-01T00:56:40.810Z,37.72
2023-04-01T00:59:14.608Z,31.02
2023-04-01T01:01:43.031Z,28.17
2023-04-01T01:04:26.654Z,33.40
2023-04-01T01:07:04.057Z,34.13
2023-04-01T01:09:49.296Z,38.65
2023-04-01T01:12:17.105Z,30.33
2023-04-01T01:15:05.161Z,33.63
2023-04-01T01:17:55.637Z,33.03
2023-04-01T01:20:48.956Z,33.47
2023-04-01T01:23:37.707Z,35.53
2023-04-01T01:26:40.918Z,35.85
2023-04-01T01:29:44.964Z,37.90
2023-04-01T01:32:31.207Z,37.88
2023-04-01T01:35:27.581Z,37.78
2023-04-01T01:38:01.060Z,45.22
2023-04-01T01:40:30.909Z,43.08
2023-04-01T01:43:04.921Z,49.17
2023-04-01T01:45:36.953Z,45.92
2023-04-01T01:48:06.767Z,51.65
2023-04-01T01:50:35.437Z,51.42
2023-04-01T01:53:09.225Z,52.60
2023-04-01T01:55:40.766Z,51.17
2023-04-01T01:58:15.093Z,49.83
2023-04-01T02:00:48.596Z,50.20
2023-04-01T02:03:18.302Z,49.67
2023-04-01T02:05:47.189Z,50.80
2023-04-01T02:08:22.547Z,49.42
2023-04-01T02:13:35.733Z,50.70
2023-04-01T02:16:10.156Z,47.92
2023-04-01T02:18:39.907Z,53.67
2023-04-01T02:21:09.924Z,47.75
2023-04-01T02:23:39.603Z,48.53
2023-04-01T02:26:09.857Z,48.80
2023-04-01T02:28:39.636Z,42.80
2023-04-01T02:31:12.293Z,51.25
2023-04-01T02:33:41.070Z,43.47
2023-04-01T02:36:14.302Z,42.90
2023-04-01T02:38:44.159Z,48.08
2023-04-01T02:41:12.821Z,43.40
2023-04-01T02:43:40.717Z,48.92
2023-04-01T02:46:08.578Z,46.72
2023-04-01T02:48:36.418Z,36.08
2023-04-01T02:51:05.101Z,41.15
2023-04-01T02:53:33.022Z,40.40
2023-04-01T02:56:00.772Z,38.30
2023-04-01T02:58:28.580Z,39.15
2023-04-01T03:00:56.436Z,42.90
2023-04-01T03:03:24.358Z,37.28
2023-04-01T03:05:52.385Z,36.67
2023-04-01T03:08:20.783Z,38.58
2023-04-01T03:10:48.557Z,40.65
2023-04-01T03:13:16.924Z,45.33
2023-04-01T03:15:45.022Z,42.58
2023-04-01T03:18:12.908Z,40.95
2023-04-01T03:20:41.556Z,43.60
2023-04-01T03:23:10.068Z,40.67
2023-04-01T03:25:38.359Z,37.53
2023-04-01T03:28:06.334Z,42.83
2023-04-01T03:30:34.881Z,47.33
2023-04-01T03:33:03.353Z,47.28
2023-04-01T03:35:33.573Z,41.30
2023-04-01T03:38:01.580Z,45.97
2023-04-01T03:40:29.378Z,41.38
2023-04-01T03:42:57.409Z,41.35
2023-04-01T03:45:25.477Z,46.13
2023-04-01T03:47:53.516Z,39.80
2023-04-01T03:50:22.134Z,41.03
2023-04-01T03:52:50.302Z,44.85
2023-04-01T03:55:19.140Z,39.08
2023-04-01T03:57:49.196Z,45.80
2023-04-01T04:00:20.056Z,36.50
2023-04-01T04:02:52.788Z,43.45
2023-04-01T04:05:27.769Z,40.72
2023-04-01T04:07:55.783Z,39.55
2023-04-01T04:10:24.410Z,40.05
2023-04-01T04:12:53.222Z,42.58
2023-04-01T04:15:23.832Z,43.47
2023-04-01T04:17:51.881Z,40.85
2023-04-01T04:20:19.742Z,39.47
2023-04-01T04:22:48.178Z,38.17
2023-04-01T04:25:16.193Z,37.45
2023-04-01T04:27:44.036Z,37.80
2023-04-01T04:30:14.448Z,36.88
2023-04-01T04:32:43.249Z,40.38
2023-04-01T04:35:12.835Z,37.60
2023-04-01T04:37:41.404Z,41.30
2023-04-01T04:40:09.659Z,34.53
2023-04-01T04:42:37.723Z,38.80
2023-04-01T04:45:10.886Z,38.60
2023-04-01T04:47:42.224Z,37.10
2023-04-01T04:50:10.946Z,41.75
2023-04-01T04:52:40.807Z,42.58
2023-04-01T04:55:08.922Z,39.60
2023-04-01T04:57:37.261Z,38.05
2023-04-01T05:00:05.909Z,37.97
2023-04-01T05:03:02.908Z,42.78
2023-04-01T05:05:31.198Z,38.63
2023-04-01T05:07:59.501Z,37.22
2023-04-01T05:10:27.512Z,34.08
2023-04-01T05:12:55.412Z,37.92
2023-04-01T05:15:24.819Z,35.35
2023-04-01T05:17:53.006Z,37.70
2023-04-01T05:20:20.886Z,36.00
2023-04-01T05:22:48.960Z,40.13
2023-04-01T05:25:17.126Z,37.97
2023-04-01T05:27:44.980Z,36.97
2023-04-01T05:30:13.088Z,37.63
2023-04-01T05:32:59.185Z,33.97
2023-04-01T05:35:27.116Z,32.63
2023-04-01T05:37:54.942Z,28.35
2023-04-01T05:40:23.242Z,31.73
2023-04-01T05:42:50.996Z,30.77
2023-04-01T05:45:19.187Z,32.35
2023-04-01T05:48:07.211Z,30.20
2023-04-01T05:50:42.797Z,30.40
2023-04-01T05:53:12.197Z,27.92
2023-04-01T05:55:43.590Z,30.60
2023-04-01T05:58:11.900Z,31.80
2023-04-01T06:00:41.583Z,31.05
2023-04-01T06:03:09.625Z,28.98
2023-04-01T06:05:42.811Z,32.10
2023-04-01T06:08:19.060Z,29.10
2023-04-01T06:11:00.720Z,38.67
2023-04-01T06:13:34.552Z,26.83
2023-04-01T06:16:19.867Z,31.92
2023-04-01T06:19:15.888Z,33.92
2023-04-01T06:22:07.286Z,32.13
2023-04-01T06:24:42.136Z,28.67
2023-04-01T06:27:41.220Z,33.55
2023-04-01T06:30:39.612Z,36.08
2023-04-01T06:33:32.786Z,33.63
2023-04-01T06:36:07.105Z,34.03
2023-04-01T06:38:44.175Z,43.40
2023-04-01T06:41:36.532Z,40.50
2023-04-01T06:44:26.292Z,45.60
2023-04-01T06:47:38.958Z,42.97
2023-04-01T06:51:13.370Z,40.83
2023-04-01T06:54:22.772Z,44.83
2023-04-01T06:57:43.723Z,43.75
2023-04-01T07:00:28.318Z,38.13
2023-04-01T07:03:19.553Z,40.72
2023-04-01T07:05:51.121Z,38.40
2023-04-01T07:08:33.937Z,40.60
2023-04-01T07:11:38.494Z,38.03
2023-04-01T07:14:36.600Z,38.40
2023-04-01T07:17:34.009Z,35.75
2023-04-01T07:20:23.874Z,37.67
2023-04-01T07:26:45.601Z,39.13
2023-04-01T07:36:48.746Z,33.50
2023-04-01T07:40:03.273Z,32.60
2023-04-01T07:43:07.533Z,31.65
2023-04-01T07:46:01.059Z,27.40
2023-04-01T08:08:16.033Z,28.58
2023-04-01T08:39:36.871Z,29.05
2023-04-01T08:42:36.413Z,26.27
2023-04-01T08:45:23.082Z,26.95
2023-04-01T08:47:56.766Z,25.05
2023-04-01T08:51:01.177Z,26.00
2023-04-01T08:53:45.505Z,22.27
2023-04-01T08:56:24.750Z,25.42
2023-04-01T08:59:10.400Z,29.10
2023-04-01T09:01:55.385Z,23.70
2023-04-01T09:05:15.859Z,28.02
2023-04-01T09:08:13.616Z,26.17
2023-04-01T09:10:59.640Z,35.20
2023-04-01T09:14:01.114Z,30.88
2023-04-01T09:17:08.313Z,29.07
2023-04-01T09:20:11.502Z,36.35
2023-04-01T09:22:48.580Z,75.57
2023-04-01T09:25:42.901Z,69.82
2023-04-01T09:28:19.821Z,41.58
2023-04-01T09:30:51.252Z,65.90
2023-04-01T09:33:44.898Z,35.47
2023-04-01T09:38:58.860Z,33.72
2023-04-01T09:41:48.107Z,31.38
2023-04-01T09:44:28.593Z,29.08
2023-04-01T09:47:44.395Z,27.40
2023-04-01T09:50:24.514Z,25.50
2023-04-01T09:53:03.813Z,27.35
2023-04-01T09:56:10.139Z,27.70
2023-04-01T09:59:24.697Z,24.88
2023-04-01T10:02:54.261Z,22.58
2023-04-01T10:05:54.028Z,11.60
2023-04-01T10:08:32.528Z,14.05
2023-04-01T10:11:24.466Z,7.10
2023-04-01T10:14:05.054Z,4.22
2023-04-01T10:16:55.724Z,3.60
2023-04-01T10:20:11.886Z,4.13
2023-04-01T10:23:09.757Z,3.03
2023-04-01T10:25:58.772Z,3.63
2023-04-01T10:28:48.955Z,3.42
2023-04-01T10:31:59.249Z,2.33
2023-04-01T10:34:45.394Z,5.70
2023-04-01T10:37:41.589Z,5.78
2023-04-01T10:40:40.351Z,3.03
2023-04-01T10:43:38.403Z,5.78
2023-04-01T10:46:36.371Z,5.30
2023-04-01T10:49:35.536Z,5.85
2023-04-01T10:52:39.698Z,5.35
2023-04-01T10:55:38.692Z,5.10
2023-04-01T10:58:58.237Z,5.70
2023-04-01T11:02:10.039Z,4.20
2023-04-01T11:05:24.593Z,5.00
2023-04-01T11:08:24.251Z,6.72
2023-04-01T11:11:30.015Z,5.47
2023-04-01T11:14:32.383Z,5.25
2023-04-01T11:17:28.572Z,4.07
2023-04-01T11:20:38.488Z,4.10
2023-04-01T11:23:26.760Z,3.25
2023-04-01T11:26:13.945Z,2.47
2023-04-01T11:29:56.719Z,2.15
2023-04-01T11:32:52.472Z,2.28
2023-04-01T11:35:50.094Z,2.03
2023-04-01T11:38:58.539Z,1.10
2023-04-01T11:42:11.955Z,2.38
2023-04-01T11:45:25.027Z,1.63
2023-04-01T11:48:18.413Z,2.92
2023-04-01T11:50:55.584Z,2.15
2023-04-01T11:53:30.873Z,2.35
2023-04-01T11:56:29.778Z,2.03
2023-04-01T11:59:09.678Z,3.33
2023-04-01T12:02:09.450Z,4.65
2023-04-01T12:05:07.410Z,2.40
2023-04-01T12:07:54.019Z,5.72
2023-04-01T12:10:46.065Z,2.85
2023-04-01T12:13:20.490Z,3.05
2023-04-01T12:15:57.361Z,7.03
2023-04-01T12:19:01.406Z,5.80
2023-04-01T12:21:44.741Z,5.32
2023-04-01T12:24:32.227Z,2.13
2023-04-01T12:27:09.356Z,2.58
2023-04-01T12:30:07.842Z,2.20
2023-04-01T12:33:06.611Z,2.38
2023-04-01T12:36:09.675Z,3.53
2023-04-01T12:38:53.477Z,2.33
2023-04-01T12:41:27.337Z,2.42
2023-04-01T12:44:04.406Z,3.83
2023-04-01T12:46:58.772Z,1.90
2023-04-01T12:49:32.794Z,2.45
2023-04-01T12:54:50.856Z,3.15
2023-04-01T12:57:24.840Z,2.33
2023-04-01T13:02:52.475Z,2.72
2023-04-01T13:05:37.793Z,4.03
2023-04-01T13:08:13.288Z,5.15
2023-04-01T13:10:44.672Z,3.13
2023-04-01T13:13:49.238Z,5.40
2023-04-01T13:16:31.234Z,4.00
2023-04-01T13:19:32.214Z,3.53
2023-04-01T13:22:25.858Z,3.70
2023-04-01T13:25:05.736Z,4.57
2023-04-01T13:27:47.537Z,4.05
2023-04-01T13:30:34.446Z,4.20
2023-04-01T13:33:51.553Z,3.63
2023-04-01T13:36:26.828Z,2.75
2023-04-01T13:39:04.096Z,2.60
2023-04-01T13:41:35.246Z,2.47
2023-04-01T13:44:17.719Z,2.55
2023-04-01T13:47:25.040Z,2.78
2023-04-01T13:50:23.849Z,2.75
2023-04-01T13:53:10.422Z,3.17
2023-04-01T13:55:59.441Z,2.58
2023-04-01T13:58:52.129Z,2.20
2023-04-01T14:01:32.346Z,2.10
2023-04-01T14:04:19.095Z,2.25
2023-04-01T14:07:19.561Z,2.75
2023-04-01T14:10:08.858Z,3.30
2023-04-01T14:12:49.132Z,3.92
2023-04-01T14:15:23.402Z,3.00
2023-04-01T14:18:28.979Z,3.05
2023-04-01T14:21:06.106Z,2.67
2023-04-01T14:24:06.008Z,2.92
2023-04-01T14:27:03.773Z,2.92
2023-04-01T14:29:41.494Z,2.97
2023-04-01T14:32:52.853Z,3.58
2023-04-01T14:35:42.764Z,3.65
2023-04-01T14:38:29.961Z,5.32
2023-04-01T14:41:12.973Z,2.80
2023-04-01T14:43:56.140Z,2.53
2023-04-01T14:47:04.789Z,6.30
2023-04-01T14:49:43.261Z,4.20
2023-04-01T14:52:39.510Z,7.93
2023-04-01T14:55:32.904Z,2.63
2023-04-01T14:58:16.376Z,4.20
2023-04-01T15:01:06.218Z,2.90
2023-04-01T15:03:41.899Z,5.70
2023-04-01T15:06:28.486Z,2.47
2023-04-01T15:09:05.336Z,3.15
2023-04-01T15:21:14.907Z,3.67
2023-04-01T15:24:07.950Z,2.25
2023-04-01T15:26:54.483Z,4.78
2023-04-01T15:29:59.155Z,3.72
2023-04-01T15:33:04.110Z,2.38
2023-04-01T15:38:51.521Z,1.55
2023-04-01T15:41:45.602Z,1.50
2023-04-01T15:44:32.306Z,3.42
2023-04-01T15:47:02.619Z,4.18
2023-04-01T15:49:46.318Z,1.20
2023-04-01T15:52:44.107Z,2.03
2023-04-01T15:55:32.927Z,1.80
2023-04-01T15:58:38.572Z,1.42
2023-04-01T16:01:35.605Z,1.88
2023-04-01T16:04:34.596Z,1.65
2023-04-01T16:07:47.114Z,1.23
2023-04-01T16:10:23.937Z,15.00
2023-04-01T16:13:30.626Z,3.53
2023-04-01T16:16:16.255Z,0.98
2023-04-01T16:18:53.370Z,2.20
2023-04-01T16:22:16.204Z,1.00
2023-04-01T16:25:16.933Z,1.00
2023-04-01T16:28:06.609Z,0.80
2023-04-01T16:30:44.261Z,1.63
2023-04-01T16:33:50.421Z,1.13
2023-04-01T16:36:36.795Z,0.85
2023-04-01T16:39:42.214Z,0.88
2023-04-01T16:42:41.579Z,0.65
2023-04-01T16:45:09.612Z,0.50
2023-04-01T16:47:42.488Z,3.33
2023-04-01T16:50:26.445Z,2.42
2023-04-01T16:53:20.504Z,1.90
2023-04-01T16:55:54.293Z,1.37
2023-04-01T16:58:28.712Z,0.32
2023-04-01T17:01:05.458Z,2.22
2023-04-01T17:03:40.087Z,3.72
2023-04-01T17:06:40.874Z,4.35
2023-04-01T17:09:11.765Z,1.05
2023-04-01T17:12:08.395Z,1.13
2023-04-01T17:15:02.160Z,0.20
2023-04-01T17:17:37.420Z,0.68
2023-04-01T17:20:36.381Z,1.35
2023-04-01T17:23:10.563Z,2.13
2023-04-01T17:28:37.689Z,1.25
2023-04-01T17:31:31.994Z,1.25
2023-04-01T17:34:26.222Z,1.10
2023-04-01T17:37:30.465Z,3.63
2023-04-01T17:40:28.895Z,4.53
2023-04-01T17:43:32.602Z,4.13
2023-04-01T17:46:12.746Z,3.20
2023-04-01T17:48:50.696Z,12.57
2023-04-01T17:52:03.212Z,7.30
2023-04-01T17:55:09.287Z,7.13
2023-04-01T17:58:00.260Z,6.75
2023-04-01T18:04:02.574Z,7.50
2023-04-01T18:07:01.603Z,11.07
2023-04-01T18:09:42.108Z,8.70
2023-04-01T18:12:29.399Z,10.48
2023-04-01T18:15:37.963Z,9.10
2023-04-01T18:18:21.199Z,11.13
2023-04-01T18:21:04.680Z,14.70
2023-04-01T18:24:14.121Z,16.37
2023-04-01T18:26:48.126Z,13.82
2023-04-01T18:29:23.630Z,14.90
2023-04-01T18:32:03.005Z,14.95
2023-04-01T18:34:55.625Z,17.30
2023-04-01T18:37:40.624Z,15.23
2023-04-01T18:40:25.436Z,12.98
2023-04-01T18:43:12.121Z,13.98
2023-04-01T18:46:01.744Z,11.98
2023-04-01T18:48:48.497Z,12.57
2023-04-01T18:51:22.940Z,12.43
2023-04-01T18:54:17.890Z,13.13
2023-04-01T18:56:47.274Z,15.15
2023-04-01T18:59:28.784Z,14.70
2023-04-01T19:02:17.689Z,10.65
2023-04-01T19:05:15.647Z,12.25
2023-04-01T19:07:49.933Z,11.32
2023-04-01T19:10:47.763Z,8.57
2023-04-01T19:13:35.349Z,12.02
2023-04-01T19:16:07.743Z,10.13
2023-04-01T19:18:57.149Z,8.10
2023-04-01T19:21:50.974Z,7.07
2023-04-01T19:25:15.686Z,6.50
2023-04-01T19:27:50.917Z,7.57
2023-04-01T19:30:18.884Z,7.43
2023-04-01T19:33:03.756Z,8.00
2023-04-01T19:35:48.882Z,9.55
2023-04-01T19:38:42.091Z,6.85
2023-04-01T19:41:23.325Z,9.50
2023-04-01T19:44:10.920Z,7.38
2023-04-01T19:47:07.995Z,8.25
2023-04-01T19:50:05.151Z,7.18
2023-04-01T19:52:44.614Z,6.60
2023-04-01T19:55:35.475Z,7.80
2023-04-01T19:58:22.038Z,7.97
2023-04-01T20:00:55.624Z,10.02
2023-04-01T20:04:02.892Z,8.90
2023-04-01T20:06:47.584Z,6.80
2023-04-01T20:09:36.559Z,6.88
2023-04-01T20:12:26.623Z,5.85
2023-04-01T20:15:05.506Z,5.05
2023-04-01T20:17:44.892Z,5.90
2023-04-01T20:20:13.328Z,9.68
2023-04-01T20:22:47.741Z,4.78
2023-04-01T20:25:27.818Z,5.20
2023-04-01T20:27:58.008Z,7.22
2023-04-01T20:30:32.533Z,5.90
2023-04-01T20:33:26.472Z,6.95
2023-04-01T20:39:26.092Z,8.25
2023-04-01T20:41:56.351Z,6.30
2023-04-01T20:45:18.344Z,4.60
2023-04-01T20:48:26.940Z,5.60
2023-04-01T20:51:08.497Z,6.80
2023-04-01T20:54:07.896Z,6.38
2023-04-01T20:56:43.888Z,3.83
2023-04-01T20:59:27.086Z,8.48
2023-04-01T21:02:21.584Z,7.22
2023-04-01T21:05:04.567Z,8.13
2023-04-01T21:07:50.953Z,12.50
2023-04-01T21:10:26.199Z,11.85
2023-04-01T21:13:14.440Z,14.07
2023-04-01T21:16:06.750Z,18.80
2023-04-01T21:18:51.885Z,17.17
2023-04-01T21:21:28.394Z,18.98
2023-04-01T21:24:26.564Z,25.05
2023-04-01T21:27:13.585Z,17.63
2023-04-01T21:30:17.751Z,24.20
2023-04-01T21:33:07.581Z,27.27
2023-04-01T21:35:51.060Z,22.25
2023-04-01T21:38:59.517Z,22.70
2023-04-01T21:42:01.131Z,24.50
2023-04-01T21:45:06.368Z,22.02
2023-04-01T21:50:46.595Z,24.60
2023-04-01T21:53:52.731Z,23.50
2023-04-01T21:56:49.886Z,27.48
2023-04-01T21:59:55.070Z,25.02
2023-04-01T22:05:18.162Z,26.95
2023-04-01T22:07:55.200Z,24.48
2023-04-01T22:11:10.102Z,24.35
2023-04-01T22:13:44.341Z,22.42
2023-04-01T22:16:16.512Z,26.10
2023-04-01T22:18:56.348Z,23.70
2023-04-01T22:22:02.976Z,24.23
2023-04-01T22:24:33.626Z,27.65
2023-04-01T22:27:28.333Z,23.70
2023-04-01T22:30:02.299Z,28.73
2023-04-01T22:32:38.366Z,29.25
2023-04-01T22:35:30.034Z,24.83
2023-04-01T22:38:24.250Z,26.08
2023-04-01T22:41:13.560Z,23.92
2023-04-01T22:43:44.897Z,27.75
2023-04-01T22:46:38.401Z,27.45
2023-04-01T22:49:10.693Z,22.27
2023-04-01T22:51:47.289Z,23.17
2023-04-01T22:54:27.461Z,26.50
2023-04-01T22:57:04.200Z,27.50
2023-04-01T22:59:38.916Z,23.52
2023-04-01T23:02:19.762Z,24.38
2023-04-01T23:04:57.031Z,28.27
2023-04-01T23:07:50.258Z,19.98
2023-04-01T23:10:39.904Z,23.08
2023-04-01T23:13:18.165Z,25.75
2023-04-01T23:15:46.937Z,25.25
2023-04-01T23:18:46.849Z,27.27
2023-04-01T23:21:23.608Z,26.55
2023-04-01T23:24:28.596Z,26.13
2023-04-01T23:27:14.647Z,29.52
2023-04-01T23:29:43.995Z,24.77
2023-04-01T23:32:18.312Z,27.42
2023-04-01T23:35:01.515Z,27.48
2023-04-01T23:37:29.625Z,28.80
2023-04-01T23:39:59.602Z,28.25
2023-04-01T23:42:40.235Z,28.60
2023-04-01T23:45:21.926Z,31.50
2023-04-01T23:47:51.660Z,24.73
2023-04-01T23:50:21.556Z,25.20
2023-04-01T23:52:53.544Z,30.95
2023-04-01T23:55:29.002Z,27.40
2023-04-01T23:58:17.871Z,29.70
